Time;durP1;ratioP1;P1;durP2;ratioP2;P2;SDS_P1;SDS_P2;PMS_P1;PMS_P2;Temp;Humidity;BMP_temperature;BMP_pressure;BME280_temperature;BME280_humidity;BME280_pressure;Samples;Min_cycle;Max_cycle;Signal;HPM_P1;HPM_P2
2023/07/04 00:01:28;;;;;;;4.50;1.80;;;13.90;99.90;;;;;;5093300;28;20474;-71
2023/07/04 00:03:57;;;;;;;5.77;1.93;;;13.90;99.90;;;;;;5093313;28;20440;-71
2023/07/04 00:06:29;;;;;;;5.70;2.50;;;13.80;99.90;;;;;;5093009;28;20450;-71
2023/07/04 00:08:57;;;;;;;4.83;2.43;;;13.80;99.90;;;;;;5093262;28;20940;-71
2023/07/04 00:11:27;;;;;;;9.00;2.50;;;13.80;99.90;;;;;;5094835;28;20436;-71
2023/07/04 00:13:56;;;;;;;9.17;3.03;;;13.70;99.90;;;;;;5094308;28;20403;-70
2023/07/04 00:16:25;;;;;;;6.30;1.90;;;13.80;99.90;;;;;;5094805;28;20479;-71
2023/07/04 00:18:53;;;;;;;5.00;2.30;;;13.80;99.90;;;;;;5094140;28;20976;-70
2023/07/04 00:21:22;;;;;;;8.10;2.77;;;13.70;99.90;;;;;;5093137;28;20963;-71
2023/07/04 00:23:53;;;;;;;7.60;3.00;;;13.80;99.90;;;;;;5093518;28;20965;-71
2023/07/04 00:26:24;;;;;;;6.63;2.73;;;13.80;99.90;;;;;;5094511;28;20577;-71
2023/07/04 00:28:53;;;;;;;8.07;2.73;;;13.80;99.90;;;;;;5092951;28;20464;-71
2023/07/04 00:31:25;;;;;;;6.10;2.00;;;13.80;99.90;;;;;;5094446;28;20420;-71
2023/07/04 00:33:54;;;;;;;7.70;2.53;;;13.80;99.90;;;;;;5094407;28;20431;-71
2023/07/04 00:36:22;;;;;;;8.27;2.77;;;13.80;99.90;;;;;;5093052;28;20457;-72
2023/07/04 00:38:56;;;;;;;5.90;2.93;;;13.80;99.90;;;;;;5094380;28;20466;-71
2023/07/04 00:41:27;;;;;;;5.17;2.60;;;13.80;99.90;;;;;;5092309;28;20433;-71
2023/07/04 00:43:59;;;;;;;5.80;2.33;;;13.80;99.90;;;;;;5092953;28;20436;-71
2023/07/04 00:46:38;;;;;;;6.13;2.60;;;13.80;99.90;;;;;;5092916;28;20471;-71
2023/07/04 00:49:18;;;;;;;5.43;2.43;;;13.80;99.90;;;;;;5094562;28;20801;-71
2023/07/04 00:52:00;;;;;;;6.30;2.80;;;13.80;99.90;;;;;;5092661;28;20498;-71
2023/07/04 00:54:35;;;;;;;4.20;2.00;;;13.80;99.90;;;;;;5094401;28;20862;-71
2023/07/04 00:57:06;;;;;;;6.53;3.07;;;13.90;99.90;;;;;;5092369;28;20444;-71
2023/07/04 00:59:37;;;;;;;6.23;2.93;;;13.90;99.90;;;;;;5093645;28;20471;-71
2023/07/04 01:02:08;;;;;;;8.03;3.07;;;13.90;99.90;;;;;;5092685;28;20463;-71
2023/07/04 01:04:37;;;;;;;6.50;3.20;;;13.90;99.90;;;;;;5093584;28;20448;-71
2023/07/04 01:07:16;;;;;;;8.10;3.20;;;13.90;99.90;;;;;;5092614;28;20555;-71
2023/07/04 01:09:51;;;;;;;7.30;3.40;;;13.90;99.90;;;;;;5093845;28;20824;-71
2023/07/04 01:12:20;;;;;;;10.27;4.20;;;14.00;99.90;;;;;;5092499;28;20866;-71
2023/07/04 01:14:49;;;;;;;9.63;4.10;;;13.90;99.90;;;;;;5093967;28;20432;-71
2023/07/04 01:17:18;;;;;;;7.23;4.53;;;14.00;99.90;;;;;;5092232;28;20448;-71
2023/07/04 01:19:46;;;;;;;11.07;4.30;;;14.00;99.90;;;;;;5092314;28;20488;-71
2023/07/04 01:22:24;;;;;;;9.13;4.60;;;14.00;99.90;;;;;;5093938;28;20771;-71
2023/07/04 01:25:04;;;;;;;9.70;4.80;;;14.00;99.90;;;;;;5092462;28;20452;-71
2023/07/04 01:27:36;;;;;;;9.33;5.10;;;14.00;99.90;;;;;;5092327;28;20529;-71
2023/07/04 01:30:07;;;;;;;6.93;4.10;;;14.00;99.90;;;;;;5093468;28;20993;-72
2023/07/04 01:32:42;;;;;;;9.50;4.60;;;14.00;99.90;;;;;;5092189;28;20443;-71
2023/07/04 01:35:13;;;;;;;13.47;4.83;;;14.00;99.90;;;;;;5092742;28;20778;-71
2023/07/04 01:37:42;;;;;;;10.80;5.80;;;14.00;99.90;;;;;;5093445;28;20456;-72
2023/07/04 01:40:12;;;;;;;8.40;5.27;;;14.00;99.90;;;;;;5092554;28;20987;-72
2023/07/04 01:42:42;;;;;;;9.33;5.43;;;14.00;99.90;;;;;;5092618;28;20802;-72
2023/07/04 01:45:11;;;;;;;9.83;5.20;;;14.00;99.90;;;;;;5093684;28;20432;-71
2023/07/04 01:47:40;;;;;;;8.87;5.00;;;14.00;99.90;;;;;;5092062;28;20460;-71
2023/07/04 01:50:10;;;;;;;10.00;5.50;;;14.00;99.90;;;;;;5091871;28;20946;-71
2023/07/04 01:52:40;;;;;;;10.60;5.50;;;14.00;99.90;;;;;;5095223;28;20415;-71
2023/07/04 01:55:09;;;;;;;11.47;5.97;;;14.10;99.90;;;;;;5097511;28;20475;-72
2023/07/04 01:57:38;;;;;;;10.73;5.80;;;14.10;99.90;;;;;;5094868;28;20464;-71
2023/07/04 02:00:10;;;;;;;9.90;5.03;;;14.20;99.90;;;;;;5095816;28;20218;-71
2023/07/04 02:02:57;;;;;;;8.97;5.87;;;14.20;99.90;;;;;;5096923;28;20427;-71
2023/07/04 02:05:26;;;;;;;13.33;5.30;;;14.20;99.90;;;;;;5095448;28;20467;-72
2023/07/04 02:07:55;;;;;;;12.00;6.60;;;14.10;99.90;;;;;;5095360;28;20471;-71
2023/07/04 02:10:23;;;;;;;11.33;5.90;;;14.10;99.90;;;;;;5097090;28;20432;-71
2023/07/04 02:12:51;;;;;;;10.87;5.80;;;14.20;99.90;;;;;;5095488;28;20793;-71
2023/07/04 02:15:22;;;;;;;12.33;6.77;;;14.10;99.90;;;;;;5095478;28;20438;-71
2023/07/04 02:17:50;;;;;;;13.40;5.60;;;14.10;99.90;;;;;;5096746;28;20416;-71
2023/07/04 02:20:20;;;;;;;12.03;6.50;;;14.10;99.90;;;;;;5095590;28;20472;-71
2023/07/04 02:22:48;;;;;;;10.53;5.83;;;14.10;99.90;;;;;;5095178;28;20545;-71
2023/07/04 02:25:16;;;;;;;12.83;7.90;;;14.10;99.90;;;;;;5095541;28;20525;-72
2023/07/04 02:27:44;;;;;;;12.03;6.50;;;14.10;99.90;;;;;;5096821;28;20460;-72
2023/07/04 02:30:13;;;;;;;9.70;6.33;;;14.10;99.90;;;;;;5095198;28;20533;-71
2023/07/04 02:32:43;;;;;;;12.70;7.20;;;14.10;99.90;;;;;;5096531;28;20490;-71
2023/07/04 02:35:13;;;;;;;10.00;6.23;;;14.10;99.90;;;;;;5094876;28;20451;-71
2023/07/04 02:37:42;;;;;;;11.10;6.40;;;14.10;99.90;;;;;;5095242;28;20448;-71
2023/07/04 02:40:11;;;;;;;12.13;7.13;;;14.10;99.90;;;;;;5096111;28;20444;-71
2023/07/04 02:42:40;;;;;;;11.43;6.87;;;14.10;99.90;;;;;;5094868;28;20455;-71
2023/07/04 02:45:09;;;;;;;17.37;7.17;;;14.10;99.90;;;;;;5094774;28;20985;-71
2023/07/04 02:47:38;;;;;;;13.50;7.77;;;14.10;99.90;;;;;;5094714;28;20471;-71
2023/07/04 02:50:12;;;;;;;12.17;6.97;;;14.10;99.90;;;;;;5094670;28;20504;-71
2023/07/04 02:52:41;;;;;;;14.83;7.23;;;14.10;99.90;;;;;;5096178;28;20418;-71
2023/07/04 02:55:09;;;;;;;11.83;6.87;;;14.10;99.90;;;;;;5095842;28;20411;-71
2023/07/04 02:57:38;;;;;;;10.77;6.47;;;14.10;99.90;;;;;;5094837;28;20437;-71
2023/07/04 03:00:07;;;;;;;9.60;6.30;;;14.10;99.90;;;;;;5095704;28;20510;-71
2023/07/04 03:02:36;;;;;;;13.50;6.60;;;14.10;99.90;;;;;;5094295;28;20432;-71
2023/07/04 03:05:07;;;;;;;14.57;7.30;;;14.10;99.90;;;;;;5093934;28;20825;-71
2023/07/04 03:07:38;;;;;;;11.20;6.90;;;14.10;99.90;;;;;;5095486;28;20462;-71
2023/07/04 03:10:08;;;;;;;11.83;6.60;;;14.10;99.90;;;;;;5093995;28;20438;-72
2023/07/04 03:12:37;;;;;;;11.80;6.90;;;14.10;99.90;;;;;;5094804;28;20448;-72
2023/07/04 03:15:07;;;;;;;10.80;6.80;;;14.00;99.90;;;;;;5094225;28;20440;-72
2023/07/04 03:17:41;;;;;;;11.13;6.87;;;14.00;99.90;;;;;;5094218;28;20447;-71
2023/07/04 03:20:12;;;;;;;14.20;7.70;;;14.00;99.90;;;;;;5093876;28;20509;-71
2023/07/04 03:22:44;;;;;;;13.87;7.63;;;14.00;99.90;;;;;;5093939;28;20450;-71
2023/07/04 03:25:15;;;;;;;9.47;7.57;;;14.00;99.90;;;;;;5093966;28;21006;-71
2023/07/04 03:27:46;;;;;;;12.87;8.17;;;14.00;99.90;;;;;;5093876;28;20460;-71
2023/07/04 03:30:16;;;;;;;12.77;8.10;;;14.00;99.90;;;;;;5093620;28;20460;-71
2023/07/04 03:32:47;;;;;;;13.63;8.20;;;14.00;99.90;;;;;;5095595;28;20425;-71
2023/07/04 03:35:16;;;;;;;14.37;8.73;;;14.00;99.90;;;;;;5093664;28;20931;-72
2023/07/04 03:37:45;;;;;;;12.93;8.67;;;14.00;99.90;;;;;;5093532;28;20452;-71
2023/07/04 03:40:14;;;;;;;11.47;8.63;;;14.00;99.90;;;;;;5094863;28;20884;-71
2023/07/04 03:42:43;;;;;;;12.57;8.57;;;14.00;99.90;;;;;;5093489;28;20449;-72
2023/07/04 03:45:12;;;;;;;15.63;8.80;;;14.00;99.90;;;;;;5095050;28;20906;-72
2023/07/04 03:47:40;;;;;;;13.57;8.80;;;14.00;99.90;;;;;;5095457;28;20920;-71
2023/07/04 03:50:13;;;;;;;14.40;8.77;;;14.00;99.90;;;;;;5094324;28;20459;-72
2023/07/04 03:52:45;;;;;;;11.57;8.90;;;14.00;99.90;;;;;;5094486;28;20449;-71
2023/07/04 03:55:14;;;;;;;12.43;8.50;;;14.00;99.90;;;;;;5094072;28;20447;-72
2023/07/04 03:57:42;;;;;;;12.80;8.93;;;14.00;99.90;;;;;;5094902;28;20422;-72
2023/07/04 04:00:12;;;;;;;13.27;8.97;;;14.00;99.90;;;;;;5094953;28;20496;-71
2023/07/04 04:02:55;;;;;;;11.57;8.10;;;14.00;99.90;;;;;;5095438;28;20474;-72
2023/07/04 04:05:23;;;;;;;13.80;8.63;;;14.00;99.90;;;;;;5094441;28;20837;-72
2023/07/04 04:07:53;;;;;;;14.40;9.20;;;14.00;99.90;;;;;;5094553;28;20500;-72
2023/07/04 04:10:22;;;;;;;11.73;8.90;;;14.00;99.90;;;;;;5094720;28;20991;-72
2023/07/04 04:12:50;;;;;;;12.73;9.43;;;14.00;99.90;;;;;;5093153;28;20455;-71
2023/07/04 04:15:18;;;;;;;13.57;7.97;;;14.10;99.90;;;;;;5093861;28;20481;-71
2023/07/04 04:17:47;;;;;;;13.10;7.60;;;14.00;99.90;;;;;;5094042;28;20811;-71
2023/07/04 04:20:16;;;;;;;10.73;7.27;;;14.00;99.90;;;;;;5094338;28;20976;-71
2023/07/04 04:22:45;;;;;;;12.60;8.20;;;14.10;99.90;;;;;;5092962;28;20480;-71
2023/07/04 04:25:16;;;;;;;13.13;7.90;;;14.10;99.90;;;;;;5092911;28;20415;-71
2023/07/04 04:27:47;;;;;;;10.60;7.50;;;14.10;99.90;;;;;;5094335;28;20448;-71
2023/07/04 04:30:15;;;;;;;9.40;7.17;;;14.00;99.90;;;;;;5094701;28;20663;-71
2023/07/04 04:32:44;;;;;;;13.10;7.27;;;14.10;99.90;;;;;;5094499;28;20537;-71
2023/07/04 04:35:14;;;;;;;11.13;7.30;;;14.10;99.90;;;;;;5092873;28;20448;-71
2023/07/04 04:37:42;;;;;;;10.97;7.37;;;14.10;99.90;;;;;;5093939;28;20543;-71
2023/07/04 04:40:11;;;;;;;12.97;7.60;;;14.10;99.90;;;;;;5092587;28;20502;-71
2023/07/04 04:42:43;;;;;;;12.80;6.40;;;14.10;99.90;;;;;;5092672;28;20493;-71
2023/07/04 04:45:14;;;;;;;10.07;6.80;;;14.10;99.90;;;;;;5092660;28;20932;-71
2023/07/04 04:47:52;;;;;;;15.70;7.63;;;14.10;99.90;;;;;;5093995;28;20922;-71
2023/07/04 04:50:22;;;;;;;12.27;8.07;;;14.10;99.90;;;;;;5092861;28;20485;-71
2023/07/04 04:52:50;;;;;;;11.90;7.13;;;14.10;99.90;;;;;;5092697;28;20494;-71
2023/07/04 04:55:18;;;;;;;11.87;7.80;;;14.20;99.90;;;;;;5094585;28;20971;-71
2023/07/04 04:57:48;;;;;;;13.03;7.40;;;14.20;99.90;;;;;;5092842;28;20448;-72
2023/07/04 05:00:17;;;;;;;11.70;5.87;;;14.20;99.90;;;;;;5093936;28;20517;-71
2023/07/04 05:02:45;;;;;;;11.43;8.03;;;14.20;99.90;;;;;;5092725;28;20865;-71
2023/07/04 05:05:14;;;;;;;11.60;8.17;;;14.20;99.90;;;;;;5094089;28;20470;-71
2023/07/04 05:07:42;;;;;;;12.70;8.00;;;14.30;99.90;;;;;;5092862;28;20791;-71
2023/07/04 05:10:11;;;;;;;11.33;8.13;;;14.30;99.90;;;;;;5093773;28;20954;-71
2023/07/04 05:12:39;;;;;;;12.13;8.00;;;14.30;99.90;;;;;;5092852;28;20422;-70
2023/07/04 05:15:10;;;;;;;12.43;8.93;;;14.30;99.90;;;;;;5093486;28;20516;-70
2023/07/04 05:17:39;;;;;;;14.37;9.43;;;14.40;99.90;;;;;;5093814;28;20423;-70
2023/07/04 05:20:13;;;;;;;11.90;8.40;;;14.40;99.90;;;;;;5093655;28;20448;-70
2023/07/04 05:22:42;;;;;;;14.80;9.30;;;14.40;99.90;;;;;;5092109;28;20415;-70
2023/07/04 05:25:11;;;;;;;13.57;9.50;;;14.50;99.90;;;;;;5092436;28;20471;-71
2023/07/04 05:27:40;;;;;;;11.13;8.63;;;14.50;99.90;;;;;;5094958;28;20418;-77
2023/07/04 05:30:10;;;;;;;10.53;9.03;;;14.50;99.90;;;;;;5098693;28;20500;-71
2023/07/04 05:32:38;;;;;;;14.33;9.43;;;14.50;99.90;;;;;;5097857;28;20452;-71
2023/07/04 05:35:07;;;;;;;12.10;8.90;;;14.60;99.90;;;;;;5097689;28;20439;-70
2023/07/04 05:37:36;;;;;;;12.00;8.97;;;14.60;99.90;;;;;;5097286;28;20436;-70
2023/07/04 05:40:04;;;;;;;12.70;8.40;;;14.60;99.90;;;;;;5097330;28;20459;-70
2023/07/04 05:42:32;;;;;;;12.20;8.60;;;14.60;99.90;;;;;;5097575;28;20425;-71
2023/07/04 05:45:00;;;;;;;13.43;8.50;;;14.70;99.90;;;;;;5097509;28;20534;-71
2023/07/04 05:47:30;;;;;;;10.87;7.17;;;14.70;99.90;;;;;;5097645;28;20830;-71
2023/07/04 05:49:58;;;;;;;14.40;7.47;;;14.70;99.90;;;;;;5097123;28;20930;-71
2023/07/04 05:52:26;;;;;;;12.20;8.10;;;14.80;99.90;;;;;;5097177;28;20446;-70
2023/07/04 05:54:54;;;;;;;11.47;8.00;;;14.80;99.90;;;;;;5097056;28;20417;-71
2023/07/04 05:57:23;;;;;;;12.97;7.50;;;14.90;99.90;;;;;;5096797;28;20927;-71
2023/07/04 05:59:51;;;;;;;11.07;7.07;;;15.00;99.90;;;;;;5096760;28;20433;-71
2023/07/04 06:02:19;;;;;;;12.23;6.77;;;15.20;99.90;;;;;;5096730;28;20904;-71
2023/07/04 06:04:51;;;;;;;10.43;6.90;;;15.30;99.90;;;;;;5097126;28;20420;-71
2023/07/04 06:07:20;;;;;;;11.90;6.83;;;15.30;99.90;;;;;;5095435;28;20527;-71
2023/07/04 06:09:48;;;;;;;8.10;6.10;;;15.40;99.90;;;;;;5096433;28;20442;-71
2023/07/04 06:12:16;;;;;;;13.60;6.20;;;15.40;99.90;;;;;;5095113;28;20510;-71
2023/07/04 06:14:44;;;;;;;9.83;6.20;;;15.50;99.90;;;;;;5096738;28;20498;-71
2023/07/04 06:17:12;;;;;;;10.80;6.03;;;15.50;99.90;;;;;;5096535;28;20501;-71
2023/07/04 06:19:40;;;;;;;8.83;5.93;;;15.60;99.90;;;;;;5095137;28;20442;-71
2023/07/04 06:22:10;;;;;;;11.43;6.50;;;15.60;99.90;;;;;;5096681;28;20406;-71
2023/07/04 06:24:38;;;;;;;13.70;6.53;;;15.60;99.90;;;;;;5096504;28;20959;-71
2023/07/04 06:27:07;;;;;;;12.00;6.03;;;15.60;99.90;;;;;;5096349;28;20415;-70
2023/07/04 06:29:36;;;;;;;14.60;5.93;;;15.60;99.90;;;;;;5094789;28;21024;-71
2023/07/04 06:32:04;;;;;;;13.77;6.70;;;15.60;99.90;;;;;;5095182;28;20523;-71
2023/07/04 06:34:35;;;;;;;12.43;5.30;;;15.60;99.90;;;;;;5096324;28;20519;-71
2023/07/04 06:37:03;;;;;;;10.03;6.07;;;15.60;99.90;;;;;;5096177;28;20442;-71
2023/07/04 06:39:33;;;;;;;9.43;5.60;;;15.70;99.90;;;;;;5095640;28;20423;-72
2023/07/04 06:42:01;;;;;;;11.47;5.60;;;15.70;99.90;;;;;;5094667;28;20451;-71
2023/07/04 06:44:38;;;;;;;8.97;5.53;;;15.80;99.90;;;;;;5095490;28;20418;-71
2023/07/04 06:47:06;;;;;;;9.40;5.03;;;15.90;99.90;;;;;;5094803;28;20445;-71
2023/07/04 06:49:35;;;;;;;9.77;5.57;;;16.10;99.90;;;;;;5094628;28;20534;-71
2023/07/04 06:52:03;;;;;;;7.50;4.20;;;16.20;99.90;;;;;;5096279;28;20428;-71
2023/07/04 06:54:34;;;;;;;6.97;4.50;;;16.30;99.90;;;;;;5094570;28;20426;-71
2023/07/04 06:57:04;;;;;;;10.10;4.23;;;16.40;99.90;;;;;;5095752;28;20403;-71
2023/07/04 06:59:32;;;;;;;10.50;4.00;;;16.60;99.90;;;;;;5095558;28;20441;-71
2023/07/04 07:02:00;;;;;;;10.20;4.60;;;16.70;99.90;;;;;;5096675;28;20443;-70
2023/07/04 07:04:29;;;;;;;10.13;4.50;;;16.70;99.90;;;;;;5095014;28;20444;-70
2023/07/04 07:06:57;;;;;;;9.50;4.30;;;16.70;99.90;;;;;;5095889;28;20750;-70
2023/07/04 07:09:26;;;;;;;6.53;3.70;;;16.80;99.90;;;;;;5095863;28;20515;-71
2023/07/04 07:11:56;;;;;;;7.27;3.73;;;16.80;99.90;;;;;;5096031;28;20425;-70
2023/07/04 07:14:24;;;;;;;7.83;3.37;;;16.90;99.90;;;;;;5095660;28;20460;-70
2023/07/04 07:16:56;;;;;;;6.40;2.93;;;16.90;99.90;;;;;;5096393;28;20764;-71
2023/07/04 07:19:25;;;;;;;8.83;2.87;;;17.00;99.90;;;;;;5096202;28;20452;-71
2023/07/04 07:21:54;;;;;;;6.93;3.40;;;17.00;99.90;;;;;;5095597;28;20406;-71
2023/07/04 07:24:22;;;;;;;8.07;3.30;;;17.00;99.90;;;;;;5095645;28;20439;-71
2023/07/04 07:26:53;;;;;;;9.80;3.20;;;17.00;99.90;;;;;;5094297;28;20432;-70
2023/07/04 07:29:26;;;;;;;6.87;2.90;;;17.00;99.90;;;;;;5094184;28;20947;-70
2023/07/04 07:31:54;;;;;;;6.20;3.10;;;17.00;99.90;;;;;;5095424;28;20423;-70
2023/07/04 07:34:22;;;;;;;6.73;3.03;;;17.00;99.90;;;;;;5095593;28;20439;-70
2023/07/04 07:36:50;;;;;;;5.80;2.47;;;17.10;99.90;;;;;;5094935;28;20453;-70
2023/07/04 07:39:18;;;;;;;7.07;3.30;;;17.20;99.90;;;;;;5093820;28;20551;-70
2023/07/04 07:41:48;;;;;;;6.47;3.10;;;17.40;99.90;;;;;;5095536;28;20860;-71
2023/07/04 07:44:17;;;;;;;5.80;3.20;;;17.50;99.90;;;;;;5095149;28;20502;-71
2023/07/04 07:46:47;;;;;;;6.40;3.30;;;17.70;99.90;;;;;;5095292;28;20527;-70
2023/07/04 07:49:16;;;;;;;7.10;3.27;;;17.70;99.90;;;;;;5094964;28;20552;-70
2023/07/04 07:51:44;;;;;;;8.17;4.07;;;17.60;99.90;;;;;;5093428;28;20468;-71
2023/07/04 07:54:14;;;;;;;8.30;4.17;;;17.70;99.90;;;;;;5093476;28;20449;-71
2023/07/04 07:56:46;;;;;;;5.97;3.13;;;17.60;99.90;;;;;;5095426;28;20452;-71
2023/07/04 07:59:14;;;;;;;6.30;3.10;;;17.70;99.90;;;;;;5094586;28;20486;-71
2023/07/04 08:01:43;;;;;;;9.13;3.33;;;17.80;99.90;;;;;;5093854;28;20449;-71
2023/07/04 08:04:12;;;;;;;7.03;2.43;;;17.90;99.90;;;;;;5093380;28;20440;-71
2023/07/04 08:06:45;;;;;;;5.63;2.53;;;18.00;99.90;;;;;;5094827;28;20417;-70
2023/07/04 08:09:16;;;;;;;6.90;2.53;;;18.00;99.90;;;;;;5093263;28;20476;-71
2023/07/04 08:11:46;;;;;;;6.00;2.30;;;18.20;99.90;;;;;;5094869;28;20431;-70
2023/07/04 08:14:16;;;;;;;5.30;1.80;;;18.30;99.90;;;;;;5094785;28;20435;-70
2023/07/04 08:16:47;;;;;;;5.30;2.00;;;18.40;99.90;;;;;;5093343;28;20922;-70
2023/07/04 08:19:18;;;;;;;4.90;1.60;;;18.30;99.90;;;;;;5095151;28;20460;-71
2023/07/04 08:21:46;;;;;;;6.17;2.00;;;18.30;99.90;;;;;;5094783;28;20409;-71
2023/07/04 08:24:16;;;;;;;5.70;1.67;;;18.30;99.90;;;;;;5094479;28;20443;-71
2023/07/04 08:26:46;;;;;;;4.87;1.90;;;18.20;99.90;;;;;;5094569;28;20871;-71
2023/07/04 08:29:15;;;;;;;5.00;1.93;;;18.20;99.90;;;;;;5093922;28;20521;-71
2023/07/04 08:31:43;;;;;;;7.67;1.90;;;18.20;99.90;;;;;;5093024;28;20464;-71
2023/07/04 08:34:12;;;;;;;6.83;2.10;;;18.10;99.90;;;;;;5094319;28;20801;-71
2023/07/04 08:36:44;;;;;;;9.10;2.00;;;18.10;99.90;;;;;;5093997;28;20547;-71
2023/07/04 08:39:12;;;;;;;6.83;1.80;;;18.10;99.90;;;;;;5094487;28;20505;-70
2023/07/04 08:41:47;;;;;;;5.70;1.50;;;18.10;99.90;;;;;;5094368;28;20496;-71
2023/07/04 08:44:18;;;;;;;5.10;1.63;;;18.00;99.90;;;;;;5094120;28;20412;-71
2023/07/04 08:46:49;;;;;;;5.20;1.70;;;18.00;99.90;;;;;;5092797;28;20441;-71
2023/07/04 08:49:30;;;;;;;4.40;1.57;;;18.10;99.90;;;;;;5094280;28;20448;-70
2023/07/04 08:52:04;;;;;;;6.00;1.80;;;18.30;99.90;;;;;;5094383;28;20465;-70
2023/07/04 08:54:34;;;;;;;6.60;1.73;;;18.40;99.90;;;;;;5094358;28;20446;-71
2023/07/04 08:57:12;;;;;;;7.03;1.90;;;18.60;99.90;;;;;;5092734;28;20505;-71
2023/07/04 08:59:43;;;;;;;4.80;1.70;;;18.70;99.90;;;;;;5093841;28;20490;-70
2023/07/04 09:02:24;;;;;;;7.50;1.77;;;18.70;99.90;;;;;;5093565;28;20969;-71
2023/07/04 09:05:01;;;;;;;4.70;1.57;;;18.70;99.90;;;;;;5092638;28;20428;-71
2023/07/04 09:07:44;;;;;;;6.10;1.70;;;18.80;99.90;;;;;;5092495;28;20486;-71
2023/07/04 09:10:23;;;;;;;9.63;2.47;;;18.70;99.90;;;;;;5093552;28;20523;-71
2023/07/04 09:12:52;;;;;;;8.47;2.20;;;18.70;99.90;;;;;;5091978;28;20448;-71
2023/07/04 09:15:27;;;;;;;5.90;1.90;;;18.70;99.90;;;;;;5093450;28;21020;-71
2023/07/04 09:18:04;;;;;;;5.60;1.73;;;18.70;99.90;;;;;;5093937;28;20511;-71
2023/07/04 09:20:44;;;;;;;5.30;1.63;;;18.80;99.90;;;;;;5094484;28;20413;-71
2023/07/04 09:23:17;;;;;;;7.77;2.50;;;18.80;99.90;;;;;;5094453;28;20522;-71
2023/07/04 09:25:45;;;;;;;4.23;1.63;;;18.90;99.90;;;;;;5095401;28;20421;-71
2023/07/04 09:28:13;;;;;;;6.43;1.83;;;18.90;99.90;;;;;;5094990;28;20466;-71
2023/07/04 09:30:42;;;;;;;7.30;2.07;;;18.90;99.90;;;;;;5094655;28;21011;-71
2023/07/04 09:33:15;;;;;;;9.47;2.00;;;19.00;99.90;;;;;;5094754;28;20419;-71
2023/07/04 09:35:44;;;;;;;5.80;1.70;;;19.10;99.90;;;;;;5094713;28;20788;-71
2023/07/04 09:38:13;;;;;;;4.23;1.67;;;19.10;99.90;;;;;;5095555;28;20489;-71
2023/07/04 09:40:45;;;;;;;4.90;1.80;;;19.10;99.90;;;;;;5094992;28;20425;-71
2023/07/04 09:43:27;;;;;;;4.73;1.43;;;19.10;99.90;;;;;;5094849;28;20811;-71
2023/07/04 09:46:13;;;;;;;6.63;2.37;;;19.10;99.90;;;;;;5093106;28;20882;-72
2023/07/04 09:48:41;;;;;;;6.40;2.60;;;19.10;99.90;;;;;;5094798;28;20455;-71
2023/07/04 09:51:26;;;;;;;6.40;1.97;;;19.10;99.90;;;;;;5094943;28;20468;-71
2023/07/04 09:54:13;;;;;;;4.63;1.70;;;19.20;99.90;;;;;;5095154;28;20420;-72
2023/07/04 09:56:42;;;;;;;5.97;1.70;;;19.30;99.90;;;;;;5094757;28;20515;-71
2023/07/04 09:59:16;;;;;;;5.80;1.73;;;19.30;99.90;;;;;;5094306;28;20815;-71
2023/07/04 10:01:46;;;;;;;7.37;1.97;;;19.30;99.90;;;;;;5094589;28;20495;-71
2023/07/04 10:04:24;;;;;;;5.83;1.87;;;19.30;99.90;;;;;;5093614;28;20460;-71
2023/07/04 10:06:54;;;;;;;4.87;1.90;;;19.30;99.90;;;;;;5094790;28;20420;-72
2023/07/04 10:09:25;;;;;;;6.53;2.10;;;19.30;99.90;;;;;;5093992;28;20448;-72
2023/07/04 10:12:09;;;;;;;7.10;2.33;;;19.30;99.90;;;;;;5095036;28;20543;-71
2023/07/04 10:14:44;;;;;;;5.67;2.20;;;19.30;99.90;;;;;;5096009;28;20416;-72
2023/07/04 10:17:16;;;;;;;6.07;2.10;;;19.30;99.90;;;;;;5098082;28;20465;-72
2023/07/04 10:19:47;;;;;;;4.93;1.83;;;19.30;99.90;;;;;;5097891;28;20452;-71
2023/07/04 10:22:25;;;;;;;6.20;2.07;;;19.40;99.90;;;;;;5097889;28;20504;-72
2023/07/04 10:24:55;;;;;;;5.03;1.80;;;19.50;99.90;;;;;;5097974;28;20844;-71
2023/07/04 10:27:28;;;;;;;6.30;1.80;;;19.50;99.90;;;;;;5097332;28;20421;-72
2023/07/04 10:29:59;;;;;;;7.30;2.10;;;19.60;99.90;;;;;;5096045;28;20802;-72
2023/07/04 10:32:29;;;;;;;8.40;2.40;;;19.60;99.90;;;;;;5097472;28;20448;-71
2023/07/04 10:34:58;;;;;;;6.77;2.23;;;19.60;99.90;;;;;;5097249;28;20428;-72
2023/07/04 10:37:30;;;;;;;6.40;2.10;;;19.60;99.90;;;;;;5097113;28;20470;-72
2023/07/04 10:40:04;;;;;;;5.40;2.07;;;19.50;99.90;;;;;;5096620;28;20458;-71
2023/07/04 10:42:37;;;;;;;6.37;2.67;;;19.50;99.90;;;;;;5096111;28;20496;-72
2023/07/04 10:45:08;;;;;;;5.57;2.23;;;19.40;99.90;;;;;;5096072;28;20448;-71
2023/07/04 10:47:40;;;;;;;6.27;1.93;;;19.30;99.90;;;;;;5094681;28;20536;-72
2023/07/04 10:50:14;;;;;;;7.03;2.27;;;19.20;99.90;;;;;;5096280;28;20505;-73
2023/07/04 10:52:48;;;;;;;7.60;1.97;;;19.10;99.90;;;;;;5097849;28;20554;-73
2023/07/04 10:55:22;;;;;;;4.43;1.53;;;19.00;99.90;;;;;;5097043;28;20886;-73
2023/07/04 10:57:59;;;;;;;5.70;1.90;;;18.80;99.90;;;;;;5096892;28;20419;-73
2023/07/04 11:00:34;;;;;;;6.30;1.77;;;18.60;99.90;;;;;;5096224;28;20421;-73
2023/07/04 11:03:07;;;;;;;6.17;2.07;;;18.30;99.90;;;;;;5096053;28;20519;-72
2023/07/04 11:05:42;;;;;;;5.93;2.00;;;18.00;99.90;;;;;;5094406;28;20432;-73
2023/07/04 11:08:15;;;;;;;5.67;1.80;;;17.80;99.90;;;;;;5095846;28;20826;-73
2023/07/04 11:10:48;;;;;;;5.30;1.93;;;17.50;99.90;;;;;;5095623;28;20516;-72
2023/07/04 11:13:19;;;;;;;5.07;1.97;;;17.30;99.90;;;;;;5095610;28;20445;-72
2023/07/04 11:15:50;;;;;;;6.70;1.87;;;17.20;99.90;;;;;;5095619;28;20501;-72
2023/07/04 11:18:24;;;;;;;5.20;2.30;;;17.00;99.90;;;;;;5095581;28;20460;-72
2023/07/04 11:20:54;;;;;;;4.97;2.43;;;16.90;99.90;;;;;;5094189;28;20527;-72
2023/07/04 11:23:23;;;;;;;6.23;2.57;;;16.90;99.90;;;;;;5094063;28;20432;-72
2023/07/04 11:26:07;;;;;;;5.90;2.47;;;16.80;99.90;;;;;;5095104;28;20765;-72
2023/07/04 11:28:50;;;;;;;6.03;2.20;;;16.90;99.90;;;;;;5095443;28;20821;-72
2023/07/04 11:31:23;;;;;;;7.83;2.23;;;16.90;99.90;;;;;;5095030;28;20458;-73
2023/07/04 11:34:05;;;;;;;5.70;2.50;;;16.90;99.90;;;;;;5095249;28;20423;-72
2023/07/04 11:36:37;;;;;;;7.03;2.80;;;17.00;99.90;;;;;;5093712;28;20890;-72
2023/07/04 11:39:21;;;;;;;6.20;2.43;;;17.00;99.90;;;;;;5094800;28;20547;-72
2023/07/04 11:41:50;;;;;;;7.40;2.57;;;17.10;99.90;;;;;;5094933;28;20893;-72
2023/07/04 11:44:23;;;;;;;7.07;2.50;;;17.20;99.90;;;;;;5093447;28;20425;-72
2023/07/04 11:47:00;;;;;;;9.40;2.53;;;17.20;99.90;;;;;;5094711;28;20427;-72
2023/07/04 11:49:30;;;;;;;7.67;2.60;;;17.30;99.90;;;;;;5094659;28;20877;-72
2023/07/04 11:52:10;;;;;;;6.13;2.50;;;17.40;99.90;;;;;;5093168;28;21000;-72
2023/07/04 11:54:38;;;;;;;8.63;3.27;;;17.50;99.90;;;;;;5094752;28;20463;-71
2023/07/04 11:57:10;;;;;;;7.17;2.87;;;17.60;99.90;;;;;;5094522;28;20443;-72
2023/07/04 11:59:44;;;;;;;8.30;2.80;;;17.70;99.90;;;;;;5093162;28;20467;-72
2023/07/04 12:02:24;;;;;;;9.80;3.87;;;17.90;99.90;;;;;;5094430;28;20449;-72
2023/07/04 12:04:53;;;;;;;9.00;3.50;;;18.00;99.90;;;;;;5093476;28;20428;-71
2023/07/04 12:07:38;;;;;;;10.70;4.50;;;18.10;99.90;;;;;;5094447;28;20475;-71
2023/07/04 12:10:11;;;;;;;8.47;3.60;;;18.30;99.90;;;;;;5094302;28;20451;-71
2023/07/04 12:12:42;;;;;;;10.20;3.70;;;18.40;99.90;;;;;;5094604;28;20602;-71
2023/07/04 12:15:12;;;;;;;7.77;2.90;;;18.50;99.90;;;;;;5094502;28;20896;-71
2023/07/04 12:17:43;;;;;;;9.73;3.00;;;18.50;99.90;;;;;;5094176;28;20869;-71
2023/07/04 12:20:14;;;;;;;7.50;2.90;;;18.60;99.90;;;;;;5094036;28;20452;-71
2023/07/04 12:22:45;;;;;;;7.47;2.63;;;18.70;99.90;;;;;;5094119;28;20412;-71
2023/07/04 12:25:22;;;;;;;6.97;2.50;;;18.80;99.90;;;;;;5092672;28;20432;-71
2023/07/04 12:27:53;;;;;;;6.90;2.57;;;18.80;99.90;;;;;;5094423;28;20964;-72
2023/07/04 12:30:22;;;;;;;5.67;2.07;;;18.90;99.90;;;;;;5094362;28;20444;-72
2023/07/04 12:32:51;;;;;;;6.40;2.53;;;18.90;99.90;;;;;;5093964;28;20468;-71
2023/07/04 12:35:25;;;;;;;4.60;2.10;;;19.00;99.90;;;;;;5094118;28;20421;-72
2023/07/04 12:37:57;;;;;;;5.60;2.70;;;19.10;99.90;;;;;;5092945;28;20444;-71
2023/07/04 12:40:28;;;;;;;8.30;2.53;;;19.10;99.90;;;;;;5093976;28;20413;-71
2023/07/04 12:42:59;;;;;;;7.83;3.07;;;19.20;99.90;;;;;;5094033;28;20448;-72
2023/07/04 12:45:31;;;;;;;6.97;2.57;;;19.20;99.90;;;;;;5093716;28;20520;-71
2023/07/04 12:48:02;;;;;;;6.40;2.23;;;19.30;99.90;;;;;;5092856;28;20440;-72
2023/07/04 12:50:34;;;;;;;6.20;2.50;;;19.40;99.90;;;;;;5093480;28;20944;-72
2023/07/04 12:53:04;;;;;;;8.73;2.87;;;19.50;99.90;;;;;;5093525;28;20468;-71
2023/07/04 12:55:35;;;;;;;6.00;2.90;;;19.60;99.90;;;;;;5093475;28;21036;-71
2023/07/04 12:58:07;;;;;;;7.37;2.03;;;19.60;99.90;;;;;;5092224;28;20472;-71
2023/07/04 13:00:44;;;;;;;6.63;2.60;;;19.70;99.90;;;;;;5093556;28;20503;-71
2023/07/04 13:03:17;;;;;;;6.57;2.70;;;19.70;99.90;;;;;;5093503;28;20474;-71